sensor_id;sensor_type;location;lat;lon;timestamp;P1;durP1;ratioP1;P2;durP2;ratioP2
47555;SDS011;33291;46.222;26.460;2023-05-17T00:00:15;6.22;;;3.08;;
47555;SDS011;33291;46.222;26.460;2023-05-17T00:02:41;5.90;;;3.40;;
47555;SDS011;33291;46.222;26.460;2023-05-17T00:05:07;7.65;;;3.53;;
47555;SDS011;33291;46.222;26.460;2023-05-17T00:07:33;4.45;;;3.60;;
47555;SDS011;33291;46.222;26.460;2023-05-17T00:09:58;7.32;;;3.67;;
47555;SDS011;33291;46.222;26.460;2023-05-17T00:12:24;5.18;;;3.28;;
47555;SDS011;33291;46.222;26.460;2023-05-17T00:14:49;8.68;;;3.28;;
47555;SDS011;33291;46.222;26.460;2023-05-17T00:17:14;6.72;;;3.03;;
47555;SDS011;33291;46.222;26.460;2023-05-17T00:19:40;5.65;;;3.22;;
47555;SDS011;33291;46.222;26.460;2023-05-17T00:22:06;10.15;;;3.60;;
47555;SDS011;33291;46.222;26.460;2023-05-17T00:24:31;6.25;;;3.20;;
47555;SDS011;33291;46.222;26.460;2023-05-17T00:26:57;5.03;;;3.58;;
47555;SDS011;33291;46.222;26.460;2023-05-17T00:29:22;9.05;;;2.92;;
47555;SDS011;33291;46.222;26.460;2023-05-17T00:31:48;8.40;;;3.42;;
47555;SDS011;33291;46.222;26.460;2023-05-17T00:34:13;9.93;;;3.30;;
47555;SDS011;33291;46.222;26.460;2023-05-17T00:36:39;4.97;;;2.80;;
47555;SDS011;33291;46.222;26.460;2023-05-17T00:39:04;4.90;;;3.47;;
47555;SDS011;33291;46.222;26.460;2023-05-17T00:41:30;7.07;;;3.72;;
47555;SDS011;33291;46.222;26.460;2023-05-17T00:43:55;5.72;;;3.15;;
47555;SDS011;33291;46.222;26.460;2023-05-17T00:46:20;8.23;;;3.20;;
47555;SDS011;33291;46.222;26.460;2023-05-17T00:48:46;6.30;;;3.90;;
47555;SDS011;33291;46.222;26.460;2023-05-17T00:51:12;6.35;;;3.10;;
47555;SDS011;33291;46.222;26.460;2023-05-17T00:53:40;8.90;;;3.15;;
47555;SDS011;33291;46.222;26.460;2023-05-17T00:56:07;6.78;;;3.15;;
47555;SDS011;33291;46.222;26.460;2023-05-17T00:58:32;11.20;;;3.97;;
47555;SDS011;33291;46.222;26.460;2023-05-17T01:00:59;9.95;;;3.28;;
47555;SDS011;33291;46.222;26.460;2023-05-17T01:03:26;8.10;;;4.32;;
47555;SDS011;33291;46.222;26.460;2023-05-17T01:05:51;8.40;;;4.57;;
47555;SDS011;33291;46.222;26.460;2023-05-17T01:08:17;7.50;;;4.20;;
47555;SDS011;33291;46.222;26.460;2023-05-17T01:10:47;5.25;;;3.40;;
47555;SDS011;33291;46.222;26.460;2023-05-17T01:16:04;4.38;;;2.70;;
47555;SDS011;33291;46.222;26.460;2023-05-17T01:18:42;7.25;;;2.53;;
47555;SDS011;33291;46.222;26.460;2023-05-17T01:27:18;5.22;;;3.17;;
47555;SDS011;33291;46.222;26.460;2023-05-17T01:29:46;5.10;;;2.97;;
47555;SDS011;33291;46.222;26.460;2023-05-17T01:32:13;7.93;;;3.60;;
47555;SDS011;33291;46.222;26.460;2023-05-17T01:34:40;5.35;;;3.10;;
47555;SDS011;33291;46.222;26.460;2023-05-17T01:37:05;4.25;;;3.13;;
47555;SDS011;33291;46.222;26.460;2023-05-17T01:39:31;4.40;;;2.90;;
47555;SDS011;33291;46.222;26.460;2023-05-17T01:41:59;5.15;;;3.30;;
47555;SDS011;33291;46.222;26.460;2023-05-17T01:48:19;6.40;;;2.75;;
47555;SDS011;33291;46.222;26.460;2023-05-17T01:50:48;6.68;;;2.80;;
47555;SDS011;33291;46.222;26.460;2023-05-17T01:55:50;9.45;;;4.32;;
47555;SDS011;33291;46.222;26.460;2023-05-17T01:58:20;6.75;;;3.42;;
47555;SDS011;33291;46.222;26.460;2023-05-17T02:00:51;5.10;;;3.05;;
47555;SDS011;33291;46.222;26.460;2023-05-17T02:03:19;5.47;;;2.80;;
47555;SDS011;33291;46.222;26.460;2023-05-17T02:05:45;4.03;;;2.80;;
47555;SDS011;33291;46.222;26.460;2023-05-17T02:08:11;5.90;;;3.47;;
47555;SDS011;33291;46.222;26.460;2023-05-17T02:10:37;5.13;;;3.40;;
47555;SDS011;33291;46.222;26.460;2023-05-17T02:13:03;7.00;;;3.30;;
47555;SDS011;33291;46.222;26.460;2023-05-17T02:15:28;7.90;;;2.88;;
47555;SDS011;33291;46.222;26.460;2023-05-17T02:17:54;4.93;;;2.95;;
47555;SDS011;33291;46.222;26.460;2023-05-17T02:20:20;9.45;;;2.95;;
47555;SDS011;33291;46.222;26.460;2023-05-17T02:22:45;4.20;;;2.95;;
47555;SDS011;33291;46.222;26.460;2023-05-17T02:25:11;3.67;;;2.95;;
47555;SDS011;33291;46.222;26.460;2023-05-17T02:27:36;8.52;;;4.05;;
47555;SDS011;33291;46.222;26.460;2023-05-17T02:30:02;6.28;;;4.03;;
47555;SDS011;33291;46.222;26.460;2023-05-17T02:32:28;4.65;;;3.10;;
47555;SDS011;33291;46.222;26.460;2023-05-17T02:34:55;6.57;;;3.90;;
47555;SDS011;33291;46.222;26.460;2023-05-17T02:37:20;9.70;;;3.97;;
47555;SDS011;33291;46.222;26.460;2023-05-17T02:39:45;8.77;;;3.58;;
47555;SDS011;33291;46.222;26.460;2023-05-17T02:42:11;8.15;;;3.60;;
47555;SDS011;33291;46.222;26.460;2023-05-17T02:44:36;14.50;;;3.45;;
47555;SDS011;33291;46.222;26.460;2023-05-17T02:47:02;4.40;;;3.05;;
47555;SDS011;33291;46.222;26.460;2023-05-17T02:49:27;7.13;;;3.80;;
47555;SDS011;33291;46.222;26.460;2023-05-17T02:51:53;7.80;;;3.33;;
47555;SDS011;33291;46.222;26.460;2023-05-17T02:54:18;6.32;;;3.30;;
47555;SDS011;33291;46.222;26.460;2023-05-17T02:56:44;6.47;;;2.92;;
47555;SDS011;33291;46.222;26.460;2023-05-17T02:59:10;4.80;;;3.00;;
47555;SDS011;33291;46.222;26.460;2023-05-17T03:01:35;12.60;;;3.88;;
47555;SDS011;33291;46.222;26.460;2023-05-17T03:04:01;4.43;;;3.30;;
47555;SDS011;33291;46.222;26.460;2023-05-17T03:06:26;5.32;;;3.20;;
47555;SDS011;33291;46.222;26.460;2023-05-17T03:08:51;4.60;;;3.45;;
47555;SDS011;33291;46.222;26.460;2023-05-17T03:11:17;7.60;;;3.40;;
47555;SDS011;33291;46.222;26.460;2023-05-17T03:13:42;4.68;;;3.20;;
47555;SDS011;33291;46.222;26.460;2023-05-17T03:16:10;7.80;;;3.83;;
47555;SDS011;33291;46.222;26.460;2023-05-17T03:18:36;4.15;;;2.90;;
47555;SDS011;33291;46.222;26.460;2023-05-17T03:21:01;5.30;;;3.53;;
47555;SDS011;33291;46.222;26.460;2023-05-17T03:23:26;4.00;;;2.90;;
47555;SDS011;33291;46.222;26.460;2023-05-17T03:25:52;9.18;;;2.72;;
47555;SDS011;33291;46.222;26.460;2023-05-17T03:28:17;7.55;;;3.92;;
47555;SDS011;33291;46.222;26.460;2023-05-17T03:30:43;6.00;;;2.95;;
47555;SDS011;33291;46.222;26.460;2023-05-17T03:33:08;7.10;;;3.42;;
47555;SDS011;33291;46.222;26.460;2023-05-17T03:35:34;4.47;;;2.90;;
47555;SDS011;33291;46.222;26.460;2023-05-17T03:37:59;6.25;;;2.50;;
47555;SDS011;33291;46.222;26.460;2023-05-17T03:40:25;4.65;;;2.88;;
47555;SDS011;33291;46.222;26.460;2023-05-17T03:42:50;3.78;;;2.70;;
47555;SDS011;33291;46.222;26.460;2023-05-17T03:45:16;5.18;;;3.55;;
47555;SDS011;33291;46.222;26.460;2023-05-17T03:47:42;20.85;;;12.00;;
47555;SDS011;33291;46.222;26.460;2023-05-17T03:50:08;7.60;;;4.85;;
47555;SDS011;33291;46.222;26.460;2023-05-17T03:52:34;10.77;;;5.30;;
47555;SDS011;33291;46.222;26.460;2023-05-17T03:54:59;10.45;;;5.90;;
47555;SDS011;33291;46.222;26.460;2023-05-17T03:57:25;21.42;;;7.50;;
47555;SDS011;33291;46.222;26.460;2023-05-17T03:59:50;12.60;;;7.13;;
47555;SDS011;33291;46.222;26.460;2023-05-17T04:02:16;43.65;;;20.83;;
47555;SDS011;33291;46.222;26.460;2023-05-17T04:04:47;26.25;;;15.23;;
47555;SDS011;33291;46.222;26.460;2023-05-17T04:07:14;53.95;;;28.52;;
47555;SDS011;33291;46.222;26.460;2023-05-17T04:09:39;59.95;;;28.73;;
47555;SDS011;33291;46.222;26.460;2023-05-17T04:12:05;60.75;;;32.40;;
47555;SDS011;33291;46.222;26.460;2023-05-17T04:14:30;26.25;;;14.25;;
47555;SDS011;33291;46.222;26.460;2023-05-17T04:16:56;22.58;;;12.10;;
47555;SDS011;33291;46.222;26.460;2023-05-17T04:19:21;15.45;;;7.18;;
47555;SDS011;33291;46.222;26.460;2023-05-17T04:21:47;6.10;;;4.28;;
47555;SDS011;33291;46.222;26.460;2023-05-17T04:24:12;8.18;;;3.50;;
47555;SDS011;33291;46.222;26.460;2023-05-17T04:26:38;7.00;;;3.40;;
47555;SDS011;33291;46.222;26.460;2023-05-17T04:29:04;5.82;;;3.03;;
47555;SDS011;33291;46.222;26.460;2023-05-17T04:31:30;4.72;;;2.42;;
47555;SDS011;33291;46.222;26.460;2023-05-17T04:33:56;4.82;;;2.50;;
47555;SDS011;33291;46.222;26.460;2023-05-17T04:36:21;6.60;;;2.60;;
47555;SDS011;33291;46.222;26.460;2023-05-17T04:38:47;5.30;;;3.05;;
47555;SDS011;33291;46.222;26.460;2023-05-17T04:41:12;7.40;;;4.20;;
47555;SDS011;33291;46.222;26.460;2023-05-17T04:43:38;6.07;;;3.40;;
47555;SDS011;33291;46.222;26.460;2023-05-17T04:46:03;11.60;;;6.00;;
47555;SDS011;33291;46.222;26.460;2023-05-17T04:48:30;7.32;;;4.03;;
47555;SDS011;33291;46.222;26.460;2023-05-17T04:50:59;6.43;;;3.10;;
47555;SDS011;33291;46.222;26.460;2023-05-17T04:53:26;7.55;;;2.58;;
47555;SDS011;33291;46.222;26.460;2023-05-17T04:55:51;3.45;;;2.72;;
47555;SDS011;33291;46.222;26.460;2023-05-17T04:58:17;4.93;;;3.05;;
47555;SDS011;33291;46.222;26.460;2023-05-17T05:00:43;10.43;;;4.28;;
47555;SDS011;33291;46.222;26.460;2023-05-17T05:03:08;5.10;;;3.60;;
47555;SDS011;33291;46.222;26.460;2023-05-17T05:05:34;11.18;;;4.40;;
47555;SDS011;33291;46.222;26.460;2023-05-17T05:07:59;5.78;;;3.80;;
47555;SDS011;33291;46.222;26.460;2023-05-17T05:10:25;6.78;;;3.92;;
47555;SDS011;33291;46.222;26.460;2023-05-17T05:12:52;9.82;;;4.30;;
47555;SDS011;33291;46.222;26.460;2023-05-17T05:15:18;8.38;;;3.38;;
47555;SDS011;33291;46.222;26.460;2023-05-17T05:17:44;11.52;;;4.50;;
47555;SDS011;33291;46.222;26.460;2023-05-17T05:20:09;8.32;;;4.43;;
47555;SDS011;33291;46.222;26.460;2023-05-17T05:22:35;8.05;;;3.45;;
47555;SDS011;33291;46.222;26.460;2023-05-17T05:25:00;6.43;;;3.78;;
47555;SDS011;33291;46.222;26.460;2023-05-17T05:27:26;6.53;;;3.35;;
47555;SDS011;33291;46.222;26.460;2023-05-17T05:29:52;4.88;;;3.22;;
47555;SDS011;33291;46.222;26.460;2023-05-17T05:32:18;5.15;;;3.22;;
47555;SDS011;33291;46.222;26.460;2023-05-17T05:34:44;6.00;;;3.47;;
47555;SDS011;33291;46.222;26.460;2023-05-17T05:37:09;7.18;;;3.65;;
47555;SDS011;33291;46.222;26.460;2023-05-17T05:39:35;8.15;;;4.03;;
47555;SDS011;33291;46.222;26.460;2023-05-17T05:42:00;8.27;;;3.83;;
47555;SDS011;33291;46.222;26.460;2023-05-17T05:44:28;8.45;;;4.10;;
47555;SDS011;33291;46.222;26.460;2023-05-17T05:46:54;7.88;;;3.92;;
47555;SDS011;33291;46.222;26.460;2023-05-17T05:49:19;10.50;;;3.80;;
47555;SDS011;33291;46.222;26.460;2023-05-17T05:51:45;7.07;;;3.72;;
47555;SDS011;33291;46.222;26.460;2023-05-17T05:54:11;4.80;;;3.03;;
47555;SDS011;33291;46.222;26.460;2023-05-17T05:56:38;7.50;;;3.45;;
47555;SDS011;33291;46.222;26.460;2023-05-17T05:59:03;6.32;;;2.75;;
47555;SDS011;33291;46.222;26.460;2023-05-17T06:01:29;4.47;;;2.42;;
47555;SDS011;33291;46.222;26.460;2023-05-17T06:03:54;6.15;;;2.28;;
47555;SDS011;33291;46.222;26.460;2023-05-17T06:06:20;10.95;;;2.58;;
47555;SDS011;33291;46.222;26.460;2023-05-17T06:08:45;6.15;;;2.80;;
47555;SDS011;33291;46.222;26.460;2023-05-17T06:11:11;9.13;;;2.50;;
47555;SDS011;33291;46.222;26.460;2023-05-17T06:13:37;5.43;;;2.50;;
47555;SDS011;33291;46.222;26.460;2023-05-17T06:16:03;6.25;;;2.72;;
47555;SDS011;33291;46.222;26.460;2023-05-17T06:18:29;5.88;;;2.60;;
47555;SDS011;33291;46.222;26.460;2023-05-17T06:20:55;3.47;;;2.60;;
47555;SDS011;33291;46.222;26.460;2023-05-17T06:23:21;6.15;;;2.30;;
47555;SDS011;33291;46.222;26.460;2023-05-17T06:25:47;7.53;;;3.00;;
47555;SDS011;33291;46.222;26.460;2023-05-17T06:28:12;5.40;;;3.00;;
47555;SDS011;33291;46.222;26.460;2023-05-17T06:30:37;6.20;;;2.75;;
47555;SDS011;33291;46.222;26.460;2023-05-17T06:33:03;4.28;;;2.22;;
47555;SDS011;33291;46.222;26.460;2023-05-17T06:35:28;9.63;;;3.05;;
47555;SDS011;33291;46.222;26.460;2023-05-17T06:37:54;4.13;;;3.20;;
47555;SDS011;33291;46.222;26.460;2023-05-17T06:40:19;3.40;;;2.50;;
47555;SDS011;33291;46.222;26.460;2023-05-17T06:42:45;5.28;;;3.00;;
47555;SDS011;33291;46.222;26.460;2023-05-17T06:45:10;10.88;;;3.97;;
47555;SDS011;33291;46.222;26.460;2023-05-17T06:47:36;8.23;;;2.63;;
47555;SDS011;33291;46.222;26.460;2023-05-17T06:50:01;5.50;;;3.25;;
47555;SDS011;33291;46.222;26.460;2023-05-17T06:52:27;5.88;;;2.80;;
47555;SDS011;33291;46.222;26.460;2023-05-17T06:54:52;5.22;;;2.83;;
47555;SDS011;33291;46.222;26.460;2023-05-17T06:57:18;11.13;;;3.33;;
47555;SDS011;33291;46.222;26.460;2023-05-17T06:59:43;8.77;;;3.00;;
47555;SDS011;33291;46.222;26.460;2023-05-17T07:07:06;5.40;;;3.28;;
47555;SDS011;33291;46.222;26.460;2023-05-17T07:09:31;6.38;;;3.08;;
47555;SDS011;33291;46.222;26.460;2023-05-17T07:11:57;4.40;;;2.78;;
47555;SDS011;33291;46.222;26.460;2023-05-17T07:14:22;9.80;;;3.75;;
47555;SDS011;33291;46.222;26.460;2023-05-17T07:16:47;10.10;;;3.03;;
47555;SDS011;33291;46.222;26.460;2023-05-17T07:19:13;5.65;;;3.17;;
47555;SDS011;33291;46.222;26.460;2023-05-17T07:21:38;6.90;;;2.72;;
47555;SDS011;33291;46.222;26.460;2023-05-17T07:24:05;4.63;;;2.47;;
47555;SDS011;33291;46.222;26.460;2023-05-17T07:26:30;5.68;;;2.95;;
47555;SDS011;33291;46.222;26.460;2023-05-17T07:28:56;5.50;;;2.70;;
47555;SDS011;33291;46.222;26.460;2023-05-17T07:31:21;3.90;;;2.15;;
47555;SDS011;33291;46.222;26.460;2023-05-17T07:33:47;4.68;;;2.35;;
47555;SDS011;33291;46.222;26.460;2023-05-17T07:36:12;6.13;;;3.30;;
47555;SDS011;33291;46.222;26.460;2023-05-17T07:38:38;5.32;;;2.28;;
47555;SDS011;33291;46.222;26.460;2023-05-17T07:41:03;3.88;;;2.40;;
47555;SDS011;33291;46.222;26.460;2023-05-17T07:43:33;6.28;;;2.10;;
47555;SDS011;33291;46.222;26.460;2023-05-17T07:46:00;8.93;;;2.53;;
47555;SDS011;33291;46.222;26.460;2023-05-17T07:48:25;5.60;;;2.20;;
47555;SDS011;33291;46.222;26.460;2023-05-17T07:50:51;7.40;;;1.98;;
47555;SDS011;33291;46.222;26.460;2023-05-17T07:53:16;7.80;;;2.28;;
47555;SDS011;33291;46.222;26.460;2023-05-17T07:55:42;6.43;;;1.85;;
47555;SDS011;33291;46.222;26.460;2023-05-17T07:58:10;8.85;;;2.42;;
47555;SDS011;33291;46.222;26.460;2023-05-17T08:00:36;3.40;;;1.90;;
47555;SDS011;33291;46.222;26.460;2023-05-17T08:03:02;5.88;;;2.50;;
47555;SDS011;33291;46.222;26.460;2023-05-17T08:05:27;5.63;;;2.60;;
47555;SDS011;33291;46.222;26.460;2023-05-17T08:07:53;7.32;;;2.25;;
47555;SDS011;33291;46.222;26.460;2023-05-17T08:10:19;6.82;;;2.15;;
47555;SDS011;33291;46.222;26.460;2023-05-17T08:12:45;9.35;;;2.42;;
47555;SDS011;33291;46.222;26.460;2023-05-17T08:15:10;7.32;;;2.80;;
47555;SDS011;33291;46.222;26.460;2023-05-17T08:17:36;5.15;;;2.30;;
47555;SDS011;33291;46.222;26.460;2023-05-17T08:20:02;5.25;;;2.40;;
47555;SDS011;33291;46.222;26.460;2023-05-17T08:22:30;8.10;;;1.77;;
47555;SDS011;33291;46.222;26.460;2023-05-17T08:24:55;7.00;;;2.25;;
47555;SDS011;33291;46.222;26.460;2023-05-17T08:27:20;6.30;;;2.33;;
47555;SDS011;33291;46.222;26.460;2023-05-17T08:29:46;4.53;;;2.25;;
47555;SDS011;33291;46.222;26.460;2023-05-17T08:32:11;5.55;;;2.20;;
47555;SDS011;33291;46.222;26.460;2023-05-17T08:34:37;5.70;;;1.88;;
47555;SDS011;33291;46.222;26.460;2023-05-17T08:37:02;7.20;;;2.25;;
47555;SDS011;33291;46.222;26.460;2023-05-17T08:39:28;2.45;;;1.77;;
47555;SDS011;33291;46.222;26.460;2023-05-17T08:41:53;7.38;;;2.20;;
47555;SDS011;33291;46.222;26.460;2023-05-17T08:44:23;3.85;;;1.83;;
47555;SDS011;33291;46.222;26.460;2023-05-17T08:46:50;7.15;;;2.58;;
47555;SDS011;33291;46.222;26.460;2023-05-17T08:49:21;4.45;;;1.75;;
47555;SDS011;33291;46.222;26.460;2023-05-17T08:51:49;8.65;;;2.20;;
47555;SDS011;33291;46.222;26.460;2023-05-17T08:54:17;6.93;;;1.95;;
47555;SDS011;33291;46.222;26.460;2023-05-17T08:56:43;6.78;;;2.78;;
47555;SDS011;33291;46.222;26.460;2023-05-17T08:59:16;3.92;;;1.55;;
47555;SDS011;33291;46.222;26.460;2023-05-17T09:01:43;4.88;;;1.90;;
47555;SDS011;33291;46.222;26.460;2023-05-17T09:04:11;10.02;;;2.42;;
47555;SDS011;33291;46.222;26.460;2023-05-17T09:06:37;7.90;;;1.98;;
47555;SDS011;33291;46.222;26.460;2023-05-17T09:09:03;6.15;;;2.08;;
47555;SDS011;33291;46.222;26.460;2023-05-17T09:11:31;5.47;;;1.90;;
47555;SDS011;33291;46.222;26.460;2023-05-17T09:13:58;3.30;;;2.03;;
47555;SDS011;33291;46.222;26.460;2023-05-17T09:16:26;3.75;;;1.92;;
47555;SDS011;33291;46.222;26.460;2023-05-17T09:18:53;10.43;;;1.92;;
47555;SDS011;33291;46.222;26.460;2023-05-17T09:21:20;10.50;;;2.60;;
47555;SDS011;33291;46.222;26.460;2023-05-17T09:23:47;4.47;;;1.80;;
47555;SDS011;33291;46.222;26.460;2023-05-17T09:26:12;6.50;;;2.42;;
47555;SDS011;33291;46.222;26.460;2023-05-17T09:28:38;5.90;;;1.88;;
47555;SDS011;33291;46.222;26.460;2023-05-17T09:31:08;6.13;;;1.67;;
47555;SDS011;33291;46.222;26.460;2023-05-17T09:41:28;5.35;;;1.90;;
47555;SDS011;33291;46.222;26.460;2023-05-17T09:43:59;4.72;;;2.03;;
47555;SDS011;33291;46.222;26.460;2023-05-17T09:46:36;5.22;;;1.92;;
47555;SDS011;33291;46.222;26.460;2023-05-17T09:49:05;4.07;;;2.58;;
47555;SDS011;33291;46.222;26.460;2023-05-17T09:51:38;7.25;;;2.97;;
47555;SDS011;33291;46.222;26.460;2023-05-17T09:56:31;5.85;;;2.33;;
47555;SDS011;33291;46.222;26.460;2023-05-17T09:59:02;5.25;;;1.85;;
47555;SDS011;33291;46.222;26.460;2023-05-17T10:01:29;5.85;;;2.30;;
47555;SDS011;33291;46.222;26.460;2023-05-17T10:04:01;8.20;;;2.20;;
47555;SDS011;33291;46.222;26.460;2023-05-17T10:06:28;12.13;;;1.95;;
47555;SDS011;33291;46.222;26.460;2023-05-17T10:08:56;5.90;;;1.88;;
47555;SDS011;33291;46.222;26.460;2023-05-17T10:11:31;4.38;;;2.60;;
47555;SDS011;33291;46.222;26.460;2023-05-17T10:14:08;7.60;;;2.17;;
47555;SDS011;33291;46.222;26.460;2023-05-17T10:16:36;5.53;;;1.98;;
47555;SDS011;33291;46.222;26.460;2023-05-17T10:19:03;5.20;;;1.80;;
47555;SDS011;33291;46.222;26.460;2023-05-17T10:21:29;6.65;;;1.90;;
47555;SDS011;33291;46.222;26.460;2023-05-17T10:23:57;6.72;;;2.20;;
47555;SDS011;33291;46.222;26.460;2023-05-17T10:26:25;5.03;;;1.83;;
47555;SDS011;33291;46.222;26.460;2023-05-17T10:28:51;9.82;;;2.35;;
47555;SDS011;33291;46.222;26.460;2023-05-17T10:31:24;7.72;;;2.25;;
47555;SDS011;33291;46.222;26.460;2023-05-17T10:33:53;8.13;;;2.70;;
47555;SDS011;33291;46.222;26.460;2023-05-17T10:36:19;3.15;;;2.05;;
47555;SDS011;33291;46.222;26.460;2023-05-17T10:38:47;10.93;;;2.60;;
47555;SDS011;33291;46.222;26.460;2023-05-17T10:41:13;6.30;;;2.20;;
47555;SDS011;33291;46.222;26.460;2023-05-17T10:43:41;9.63;;;2.17;;
47555;SDS011;33291;46.222;26.460;2023-05-17T10:46:19;4.00;;;2.20;;
47555;SDS011;33291;46.222;26.460;2023-05-17T10:48:50;7.65;;;2.20;;
47555;SDS011;33291;46.222;26.460;2023-05-17T10:51:24;8.80;;;3.13;;
47555;SDS011;33291;46.222;26.460;2023-05-17T10:56:37;3.90;;;2.03;;
47555;SDS011;33291;46.222;26.460;2023-05-17T11:01:50;5.18;;;2.05;;
47555;SDS011;33291;46.222;26.460;2023-05-17T11:04:40;4.28;;;2.08;;
47555;SDS011;33291;46.222;26.460;2023-05-17T11:09:43;4.47;;;2.20;;
47555;SDS011;33291;46.222;26.460;2023-05-17T11:12:11;3.35;;;2.22;;
47555;SDS011;33291;46.222;26.460;2023-05-17T11:17:16;9.07;;;2.65;;
47555;SDS011;33291;46.222;26.460;2023-05-17T11:22:19;3.50;;;2.10;;
47555;SDS011;33291;46.222;26.460;2023-05-17T11:24:51;9.75;;;2.28;;
47555;SDS011;33291;46.222;26.460;2023-05-17T11:27:18;4.68;;;2.42;;
47555;SDS011;33291;46.222;26.460;2023-05-17T11:29:45;3.20;;;2.40;;
47555;SDS011;33291;46.222;26.460;2023-05-17T11:32:12;4.10;;;2.53;;
47555;SDS011;33291;46.222;26.460;2023-05-17T11:34:37;8.50;;;2.88;;
47555;SDS011;33291;46.222;26.460;2023-05-17T11:37:03;12.57;;;2.97;;
47555;SDS011;33291;46.222;26.460;2023-05-17T11:39:34;8.20;;;3.50;;
47555;SDS011;33291;46.222;26.460;2023-05-17T11:41:59;7.70;;;2.30;;
47555;SDS011;33291;46.222;26.460;2023-05-17T11:44:31;5.60;;;2.63;;
47555;SDS011;33291;46.222;26.460;2023-05-17T11:47:06;8.32;;;2.38;;
47555;SDS011;33291;46.222;26.460;2023-05-17T11:49:38;8.93;;;3.25;;
47555;SDS011;33291;46.222;26.460;2023-05-17T11:52:04;7.10;;;2.83;;
47555;SDS011;33291;46.222;26.460;2023-05-17T11:54:31;5.20;;;2.70;;
47555;SDS011;33291;46.222;26.460;2023-05-17T11:56:56;9.00;;;3.22;;
47555;SDS011;33291;46.222;26.460;2023-05-17T11:59:24;8.48;;;2.47;;
47555;SDS011;33291;46.222;26.460;2023-05-17T12:01:50;13.65;;;3.45;;
47555;SDS011;33291;46.222;26.460;2023-05-17T12:04:25;4.72;;;2.67;;
47555;SDS011;33291;46.222;26.460;2023-05-17T12:06:54;13.02;;;2.75;;
47555;SDS011;33291;46.222;26.460;2023-05-17T12:09:23;3.58;;;2.75;;
47555;SDS011;33291;46.222;26.460;2023-05-17T12:11:50;4.05;;;2.83;;
47555;SDS011;33291;46.222;26.460;2023-05-17T12:14:16;5.60;;;2.42;;
47555;SDS011;33291;46.222;26.460;2023-05-17T12:16:52;7.63;;;2.97;;
47555;SDS011;33291;46.222;26.460;2023-05-17T12:19:22;4.53;;;2.63;;
47555;SDS011;33291;46.222;26.460;2023-05-17T12:21:53;11.00;;;3.33;;
47555;SDS011;33291;46.222;26.460;2023-05-17T12:24:37;11.52;;;3.30;;
47555;SDS011;33291;46.222;26.460;2023-05-17T12:27:06;6.38;;;2.90;;
47555;SDS011;33291;46.222;26.460;2023-05-17T12:29:32;12.65;;;3.28;;
47555;SDS011;33291;46.222;26.460;2023-05-17T12:31:58;11.93;;;2.75;;
47555;SDS011;33291;46.222;26.460;2023-05-17T12:34:25;6.82;;;2.78;;
47555;SDS011;33291;46.222;26.460;2023-05-17T12:36:53;5.90;;;2.80;;
47555;SDS011;33291;46.222;26.460;2023-05-17T12:39:19;6.30;;;2.67;;
47555;SDS011;33291;46.222;26.460;2023-05-17T12:41:48;5.88;;;2.28;;
47555;SDS011;33291;46.222;26.460;2023-05-17T12:44:14;5.75;;;2.65;;
47555;SDS011;33291;46.222;26.460;2023-05-17T12:46:40;5.53;;;2.45;;
47555;SDS011;33291;46.222;26.460;2023-05-17T12:49:06;5.70;;;2.90;;
47555;SDS011;33291;46.222;26.460;2023-05-17T12:51:42;12.85;;;3.58;;
47555;SDS011;33291;46.222;26.460;2023-05-17T12:54:09;7.55;;;3.20;;
47555;SDS011;33291;46.222;26.460;2023-05-17T12:56:43;4.25;;;2.83;;
47555;SDS011;33291;46.222;26.460;2023-05-17T13:01:35;9.05;;;2.72;;
47555;SDS011;33291;46.222;26.460;2023-05-17T13:04:03;6.07;;;2.80;;
47555;SDS011;33291;46.222;26.460;2023-05-17T13:06:28;6.28;;;2.95;;
47555;SDS011;33291;46.222;26.460;2023-05-17T13:09:06;8.95;;;3.40;;
47555;SDS011;33291;46.222;26.460;2023-05-17T13:11:32;7.82;;;2.83;;
47555;SDS011;33291;46.222;26.460;2023-05-17T13:14:04;6.23;;;3.23;;
47555;SDS011;33291;46.222;26.460;2023-05-17T13:16:30;6.55;;;3.50;;
47555;SDS011;33291;46.222;26.460;2023-05-17T13:18:56;7.68;;;2.80;;
47555;SDS011;33291;46.222;26.460;2023-05-17T13:21:21;7.75;;;2.97;;
47555;SDS011;33291;46.222;26.460;2023-05-17T13:23:48;9.60;;;2.83;;
47555;SDS011;33291;46.222;26.460;2023-05-17T13:26:14;5.30;;;2.78;;
47555;SDS011;33291;46.222;26.460;2023-05-17T13:28:41;6.53;;;2.95;;
47555;SDS011;33291;46.222;26.460;2023-05-17T13:31:07;5.80;;;2.67;;
47555;SDS011;33291;46.222;26.460;2023-05-17T13:33:33;7.40;;;2.67;;
47555;SDS011;33291;46.222;26.460;2023-05-17T13:35:58;5.05;;;2.67;;
47555;SDS011;33291;46.222;26.460;2023-05-17T13:38:24;25.48;;;11.15;;
47555;SDS011;33291;46.222;26.460;2023-05-17T13:40:50;10.93;;;4.80;;
47555;SDS011;33291;46.222;26.460;2023-05-17T13:43:16;13.52;;;3.15;;
47555;SDS011;33291;46.222;26.460;2023-05-17T13:45:41;11.55;;;3.63;;
47555;SDS011;33291;46.222;26.460;2023-05-17T13:48:07;5.63;;;3.75;;
47555;SDS011;33291;46.222;26.460;2023-05-17T13:50:32;6.43;;;3.25;;
47555;SDS011;33291;46.222;26.460;2023-05-17T13:52:58;8.85;;;2.72;;
47555;SDS011;33291;46.222;26.460;2023-05-17T13:55:25;6.95;;;3.10;;
47555;SDS011;33291;46.222;26.460;2023-05-17T13:57:51;10.25;;;3.35;;
47555;SDS011;33291;46.222;26.460;2023-05-17T14:00:16;8.73;;;2.97;;
47555;SDS011;33291;46.222;26.460;2023-05-17T14:02:42;5.38;;;3.45;;
47555;SDS011;33291;46.222;26.460;2023-05-17T14:05:08;10.20;;;3.15;;
47555;SDS011;33291;46.222;26.460;2023-05-17T14:07:34;9.35;;;3.15;;
47555;SDS011;33291;46.222;26.460;2023-05-17T14:10:05;6.38;;;3.00;;
47555;SDS011;33291;46.222;26.460;2023-05-17T14:12:32;9.30;;;3.38;;
47555;SDS011;33291;46.222;26.460;2023-05-17T14:14:57;6.78;;;3.10;;
47555;SDS011;33291;46.222;26.460;2023-05-17T14:17:23;12.25;;;3.05;;
47555;SDS011;33291;46.222;26.460;2023-05-17T14:19:48;9.40;;;3.05;;
47555;SDS011;33291;46.222;26.460;2023-05-17T14:22:14;8.43;;;3.00;;
47555;SDS011;33291;46.222;26.460;2023-05-17T14:24:39;9.43;;;2.95;;
47555;SDS011;33291;46.222;26.460;2023-05-17T14:27:05;7.43;;;3.17;;
47555;SDS011;33291;46.222;26.460;2023-05-17T14:29:30;5.97;;;2.55;;
47555;SDS011;33291;46.222;26.460;2023-05-17T14:31:56;4.47;;;2.47;;
47555;SDS011;33291;46.222;26.460;2023-05-17T14:34:21;5.45;;;2.95;;
47555;SDS011;33291;46.222;26.460;2023-05-17T14:36:47;9.50;;;2.80;;
47555;SDS011;33291;46.222;26.460;2023-05-17T14:39:12;8.63;;;3.53;;
47555;SDS011;33291;46.222;26.460;2023-05-17T14:41:37;8.52;;;3.05;;
47555;SDS011;33291;46.222;26.460;2023-05-17T14:44:03;7.40;;;2.75;;
47555;SDS011;33291;46.222;26.460;2023-05-17T14:46:29;13.05;;;3.25;;
47555;SDS011;33291;46.222;26.460;2023-05-17T14:48:55;6.07;;;2.50;;
47555;SDS011;33291;46.222;26.460;2023-05-17T14:51:20;4.88;;;2.90;;
47555;SDS011;33291;46.222;26.460;2023-05-17T14:53:46;5.82;;;3.30;;
47555;SDS011;33291;46.222;26.460;2023-05-17T14:56:12;7.53;;;2.92;;
47555;SDS011;33291;46.222;26.460;2023-05-17T14:58:39;4.80;;;2.75;;
47555;SDS011;33291;46.222;26.460;2023-05-17T15:01:06;5.57;;;3.15;;
47555;SDS011;33291;46.222;26.460;2023-05-17T15:03:32;7.43;;;3.15;;
47555;SDS011;33291;46.222;26.460;2023-05-17T15:05:58;10.73;;;2.97;;
47555;SDS011;33291;46.222;26.460;2023-05-17T15:08:25;9.35;;;3.00;;
47555;SDS011;33291;46.222;26.460;2023-05-17T15:10:51;5.15;;;2.90;;
47555;SDS011;33291;46.222;26.460;2023-05-17T15:13:18;10.13;;;3.45;;
47555;SDS011;33291;46.222;26.460;2023-05-17T15:15:44;5.57;;;3.22;;